sensor_id;sensor_type;location;lat;lon;timestamp;pressure;altitude;pressure_sealevel;temperature;humidity
21821;BME280;11073;48.586;12.066;2023-06-05T00:01:14;96526.31;;;21.28;42.70
21821;BME280;11073;48.586;12.066;2023-06-05T00:04:05;96524.34;;;21.15;42.98
21821;BME280;11073;48.586;12.066;2023-06-05T00:06:54;96534.50;;;21.14;43.01
21821;BME280;11073;48.586;12.066;2023-06-05T00:09:45;96531.88;;;21.09;43.14
21821;BME280;11073;48.586;12.066;2023-06-05T00:12:35;96526.47;;;21.04;43.46
21821;BME280;11073;48.586;12.066;2023-06-05T00:15:25;96525.34;;;21.05;43.56
21821;BME280;11073;48.586;12.066;2023-06-05T00:18:14;96528.81;;;21.11;43.25
21821;BME280;11073;48.586;12.066;2023-06-05T00:21:04;96525.84;;;21.07;43.16
21821;BME280;11073;48.586;12.066;2023-06-05T00:23:53;96532.47;;;21.06;43.49
21821;BME280;11073;48.586;12.066;2023-06-05T00:26:42;96532.78;;;21.05;43.56
21821;BME280;11073;48.586;12.066;2023-06-05T00:29:33;96531.78;;;21.01;43.16
21821;BME280;11073;48.586;12.066;2023-06-05T00:32:22;96532.03;;;20.99;43.29
21821;BME280;11073;48.586;12.066;2023-06-05T00:35:12;96526.34;;;20.96;43.40
21821;BME280;11073;48.586;12.066;2023-06-05T00:38:02;96527.75;;;20.93;43.67
21821;BME280;11073;48.586;12.066;2023-06-05T00:40:51;96521.53;;;20.87;43.50
21821;BME280;11073;48.586;12.066;2023-06-05T00:43:39;96521.31;;;20.84;43.88
21821;BME280;11073;48.586;12.066;2023-06-05T00:46:30;96512.88;;;20.80;43.85
21821;BME280;11073;48.586;12.066;2023-06-05T00:49:19;96520.59;;;20.78;44.07
21821;BME280;11073;48.586;12.066;2023-06-05T00:52:09;96520.78;;;20.68;44.24
21821;BME280;11073;48.586;12.066;2023-06-05T00:55:00;96510.78;;;20.58;44.45
21821;BME280;11073;48.586;12.066;2023-06-05T00:57:50;96515.47;;;20.58;44.47
21821;BME280;11073;48.586;12.066;2023-06-05T01:00:39;96528.91;;;20.59;44.63
21821;BME280;11073;48.586;12.066;2023-06-05T01:03:31;96518.28;;;20.53;44.58
21821;BME280;11073;48.586;12.066;2023-06-05T01:06:21;96509.59;;;20.46;44.83
21821;BME280;11073;48.586;12.066;2023-06-05T01:09:11;96512.03;;;20.47;45.00
21821;BME280;11073;48.586;12.066;2023-06-05T01:12:05;96519.09;;;20.53;44.85
21821;BME280;11073;48.586;12.066;2023-06-05T01:14:58;96518.91;;;20.50;45.15
21821;BME280;11073;48.586;12.066;2023-06-05T01:17:50;96520.63;;;20.41;45.24
21821;BME280;11073;48.586;12.066;2023-06-05T01:20:42;96517.16;;;20.35;45.81
21821;BME280;11073;48.586;12.066;2023-06-05T01:23:33;96509.81;;;20.30;45.89
21821;BME280;11073;48.586;12.066;2023-06-05T01:26:27;96503.28;;;20.26;46.09
21821;BME280;11073;48.586;12.066;2023-06-05T01:29:23;96506.03;;;20.26;45.88
21821;BME280;11073;48.586;12.066;2023-06-05T01:32:20;96508.25;;;20.24;46.15
21821;BME280;11073;48.586;12.066;2023-06-05T01:35:13;96501.94;;;20.24;46.41
21821;BME280;11073;48.586;12.066;2023-06-05T01:38:06;96501.63;;;20.25;46.67
21821;BME280;11073;48.586;12.066;2023-06-05T01:40:59;96500.09;;;20.19;46.32
21821;BME280;11073;48.586;12.066;2023-06-05T01:43:49;96505.88;;;20.18;46.69
21821;BME280;11073;48.586;12.066;2023-06-05T01:46:40;96500.69;;;20.16;46.99
21821;BME280;11073;48.586;12.066;2023-06-05T01:49:30;96485.56;;;20.00;46.88
21821;BME280;11073;48.586;12.066;2023-06-05T01:52:20;96497.25;;;20.05;47.24
21821;BME280;11073;48.586;12.066;2023-06-05T01:55:13;96500.47;;;20.13;47.25
21821;BME280;11073;48.586;12.066;2023-06-05T01:58:04;96503.00;;;20.09;47.16
21821;BME280;11073;48.586;12.066;2023-06-05T02:00:54;96494.25;;;20.07;46.98
21821;BME280;11073;48.586;12.066;2023-06-05T02:03:45;96492.38;;;20.02;47.24
21821;BME280;11073;48.586;12.066;2023-06-05T02:06:37;96484.44;;;20.01;47.55
21821;BME280;11073;48.586;12.066;2023-06-05T02:09:32;96489.69;;;19.97;47.38
21821;BME280;11073;48.586;12.066;2023-06-05T02:12:21;96490.88;;;19.91;47.54
21821;BME280;11073;48.586;12.066;2023-06-05T02:15:15;96484.81;;;19.94;47.86
21821;BME280;11073;48.586;12.066;2023-06-05T02:18:04;96485.03;;;19.98;47.74
21821;BME280;11073;48.586;12.066;2023-06-05T02:20:56;96481.16;;;19.99;47.53
21821;BME280;11073;48.586;12.066;2023-06-05T02:23:45;96468.47;;;19.84;48.05
21821;BME280;11073;48.586;12.066;2023-06-05T02:26:35;96483.84;;;19.85;48.41
21821;BME280;11073;48.586;12.066;2023-06-05T02:29:24;96475.38;;;19.81;48.38
21821;BME280;11073;48.586;12.066;2023-06-05T02:32:14;96488.72;;;19.69;48.67
21821;BME280;11073;48.586;12.066;2023-06-05T02:35:04;96477.41;;;19.52;48.91
21821;BME280;11073;48.586;12.066;2023-06-05T02:37:53;96480.81;;;19.44;49.16
21821;BME280;11073;48.586;12.066;2023-06-05T02:40:44;96479.75;;;19.40;49.58
21821;BME280;11073;48.586;12.066;2023-06-05T02:43:33;96477.28;;;19.38;49.78
21821;BME280;11073;48.586;12.066;2023-06-05T02:46:22;96476.78;;;19.36;49.75
21821;BME280;11073;48.586;12.066;2023-06-05T02:49:14;96474.34;;;19.35;49.99
21821;BME280;11073;48.586;12.066;2023-06-05T02:52:04;96477.66;;;19.32;50.24
21821;BME280;11073;48.586;12.066;2023-06-05T02:54:53;96475.72;;;19.32;50.24
21821;BME280;11073;48.586;12.066;2023-06-05T02:57:43;96478.16;;;19.34;50.26
21821;BME280;11073;48.586;12.066;2023-06-05T03:00:40;96470.88;;;19.24;50.44
21821;BME280;11073;48.586;12.066;2023-06-05T03:03:31;96467.63;;;19.22;50.72
21821;BME280;11073;48.586;12.066;2023-06-05T03:06:22;96476.06;;;19.25;50.74
21821;BME280;11073;48.586;12.066;2023-06-05T03:09:17;96472.00;;;19.23;50.60
21821;BME280;11073;48.586;12.066;2023-06-05T03:12:07;96468.19;;;19.19;50.90
21821;BME280;11073;48.586;12.066;2023-06-05T03:14:56;96471.22;;;19.17;50.87
21821;BME280;11073;48.586;12.066;2023-06-05T03:17:44;96467.47;;;19.13;50.96
21821;BME280;11073;48.586;12.066;2023-06-05T03:20:34;96469.75;;;19.06;51.13
21821;BME280;11073;48.586;12.066;2023-06-05T03:23:27;96467.56;;;19.03;51.40
21821;BME280;11073;48.586;12.066;2023-06-05T03:26:17;96468.44;;;18.98;51.27
21821;BME280;11073;48.586;12.066;2023-06-05T03:29:07;96475.56;;;18.99;51.44
21821;BME280;11073;48.586;12.066;2023-06-05T03:31:56;96470.09;;;18.99;51.26
21821;BME280;11073;48.586;12.066;2023-06-05T03:34:45;96461.13;;;18.89;51.68
21821;BME280;11073;48.586;12.066;2023-06-05T03:37:38;96476.22;;;18.91;51.69
21821;BME280;11073;48.586;12.066;2023-06-05T03:40:29;96472.69;;;18.86;51.67
21821;BME280;11073;48.586;12.066;2023-06-05T03:43:19;96471.84;;;18.90;51.73
21821;BME280;11073;48.586;12.066;2023-06-05T03:46:08;96469.00;;;18.95;51.94
21821;BME280;11073;48.586;12.066;2023-06-05T03:48:59;96475.09;;;18.92;51.59
21821;BME280;11073;48.586;12.066;2023-06-05T03:51:53;96476.47;;;18.90;51.64
21821;BME280;11073;48.586;12.066;2023-06-05T03:54:46;96473.47;;;18.91;51.63
21821;BME280;11073;48.586;12.066;2023-06-05T03:57:42;96474.22;;;18.97;51.54
21821;BME280;11073;48.586;12.066;2023-06-05T04:00:33;96480.59;;;18.92;51.50
21821;BME280;11073;48.586;12.066;2023-06-05T04:03:23;96480.94;;;18.86;51.69
21821;BME280;11073;48.586;12.066;2023-06-05T04:06:14;96486.13;;;18.87;51.68
21821;BME280;11073;48.586;12.066;2023-06-05T04:09:03;96482.50;;;18.92;51.72
21821;BME280;11073;48.586;12.066;2023-06-05T04:11:58;96486.75;;;19.03;51.53
21821;BME280;11073;48.586;12.066;2023-06-05T04:14:50;96483.72;;;19.05;51.35
21821;BME280;11073;48.586;12.066;2023-06-05T04:17:39;96490.88;;;19.06;51.32
21821;BME280;11073;48.586;12.066;2023-06-05T04:20:30;96488.41;;;19.04;50.95
21821;BME280;11073;48.586;12.066;2023-06-05T04:23:19;96493.31;;;19.07;50.59
21821;BME280;11073;48.586;12.066;2023-06-05T04:26:09;96496.56;;;19.09;50.34
21821;BME280;11073;48.586;12.066;2023-06-05T04:28:59;96494.09;;;19.13;49.92
21821;BME280;11073;48.586;12.066;2023-06-05T04:31:50;96503.03;;;19.18;49.86
21821;BME280;11073;48.586;12.066;2023-06-05T04:34:39;96489.88;;;19.20;49.51
21821;BME280;11073;48.586;12.066;2023-06-05T04:37:28;96491.72;;;19.25;49.58
21821;BME280;11073;48.586;12.066;2023-06-05T04:40:18;96483.19;;;19.26;49.32
21821;BME280;11073;48.586;12.066;2023-06-05T04:43:09;96491.38;;;19.32;49.31
21821;BME280;11073;48.586;12.066;2023-06-05T04:45:58;96486.66;;;19.37;49.10
21821;BME280;11073;48.586;12.066;2023-06-05T04:48:50;96480.81;;;19.44;48.96
21821;BME280;11073;48.586;12.066;2023-06-05T04:51:43;96477.41;;;19.52;48.81
21821;BME280;11073;48.586;12.066;2023-06-05T04:54:34;96483.94;;;19.56;48.73
21821;BME280;11073;48.586;12.066;2023-06-05T04:57:25;96481.16;;;19.61;48.69
21821;BME280;11073;48.586;12.066;2023-06-05T05:00:15;96490.44;;;19.65;48.35
21821;BME280;11073;48.586;12.066;2023-06-05T05:03:05;96489.63;;;19.65;48.25
21821;BME280;11073;48.586;12.066;2023-06-05T05:05:56;96489.03;;;19.68;47.89
21821;BME280;11073;48.586;12.066;2023-06-05T05:08:46;96491.72;;;19.73;47.67
21821;BME280;11073;48.586;12.066;2023-06-05T05:11:37;96496.09;;;19.74;47.35
21821;BME280;11073;48.586;12.066;2023-06-05T05:14:27;96494.66;;;19.76;47.17
21821;BME280;11073;48.586;12.066;2023-06-05T05:17:17;96492.66;;;19.82;46.81
21821;BME280;11073;48.586;12.066;2023-06-05T05:20:08;96482.72;;;19.86;46.70
21821;BME280;11073;48.586;12.066;2023-06-05T05:23:00;96482.94;;;19.90;46.68
21821;BME280;11073;48.586;12.066;2023-06-05T05:25:49;96485.63;;;19.95;46.42
21821;BME280;11073;48.586;12.066;2023-06-05T05:28:38;96493.25;;;19.98;46.29
21821;BME280;11073;48.586;12.066;2023-06-05T05:31:27;96492.88;;;20.04;46.43
21821;BME280;11073;48.586;12.066;2023-06-05T05:34:17;96484.88;;;20.08;46.46
21821;BME280;11073;48.586;12.066;2023-06-05T05:37:07;96488.13;;;20.10;46.14
21821;BME280;11073;48.586;12.066;2023-06-05T05:39:57;96493.25;;;20.17;46.33
21821;BME280;11073;48.586;12.066;2023-06-05T05:42:46;96484.13;;;20.21;46.60
21821;BME280;11073;48.586;12.066;2023-06-05T05:45:35;96492.28;;;20.26;46.45
21821;BME280;11073;48.586;12.066;2023-06-05T05:48:26;96489.53;;;20.26;46.57
21821;BME280;11073;48.586;12.066;2023-06-05T05:51:15;96497.19;;;20.29;46.66
21821;BME280;11073;48.586;12.066;2023-06-05T05:54:05;96496.06;;;20.30;46.40
21821;BME280;11073;48.586;12.066;2023-06-05T05:56:55;96495.25;;;20.30;46.65
21821;BME280;11073;48.586;12.066;2023-06-05T05:59:44;96499.94;;;20.29;46.78
21821;BME280;11073;48.586;12.066;2023-06-05T06:02:33;96498.75;;;20.35;46.92
21821;BME280;11073;48.586;12.066;2023-06-05T06:05:22;96508.91;;;20.35;46.82
21821;BME280;11073;48.586;12.066;2023-06-05T06:08:11;96499.56;;;20.36;47.16
21821;BME280;11073;48.586;12.066;2023-06-05T06:11:01;96496.81;;;20.36;47.08
21821;BME280;11073;48.586;12.066;2023-06-05T06:13:53;96508.53;;;20.42;47.06
21821;BME280;11073;48.586;12.066;2023-06-05T06:16:41;96507.44;;;20.43;46.85
21821;BME280;11073;48.586;12.066;2023-06-05T06:19:31;96506.84;;;20.46;47.27
21821;BME280;11073;48.586;12.066;2023-06-05T06:22:20;96511.66;;;20.54;47.13
21821;BME280;11073;48.586;12.066;2023-06-05T06:25:10;96508.28;;;20.57;47.48
21821;BME280;11073;48.586;12.066;2023-06-05T06:28:00;96505.16;;;20.50;47.30
21821;BME280;11073;48.586;12.066;2023-06-05T06:30:50;96505.16;;;20.50;47.28
21821;BME280;11073;48.586;12.066;2023-06-05T06:33:39;96511.16;;;20.52;47.70
21821;BME280;11073;48.586;12.066;2023-06-05T06:36:28;96516.34;;;20.53;47.22
21821;BME280;11073;48.586;12.066;2023-06-05T06:39:17;96511.78;;;20.62;47.30
21821;BME280;11073;48.586;12.066;2023-06-05T06:42:07;96520.78;;;20.68;47.25
21821;BME280;11073;48.586;12.066;2023-06-05T06:44:59;96516.31;;;20.72;47.37
21821;BME280;11073;48.586;12.066;2023-06-05T06:47:50;96520.38;;;20.75;47.23
21821;BME280;11073;48.586;12.066;2023-06-05T06:50:54;96505.91;;;20.69;47.29
21821;BME280;11073;48.586;12.066;2023-06-05T06:53:43;96511.31;;;20.74;47.29
21821;BME280;11073;48.586;12.066;2023-06-05T06:56:32;96518.38;;;20.80;46.97
21821;BME280;11073;48.586;12.066;2023-06-05T06:59:21;96520.81;;;20.82;47.32
21821;BME280;11073;48.586;12.066;2023-06-05T07:02:12;96525.31;;;20.91;47.25
21821;BME280;11073;48.586;12.066;2023-06-05T07:05:03;96522.47;;;20.97;47.21
21821;BME280;11073;48.586;12.066;2023-06-05T07:07:53;96521.84;;;21.00;46.97
21821;BME280;11073;48.586;12.066;2023-06-05T07:10:48;96519.09;;;21.00;46.75
21821;BME280;11073;48.586;12.066;2023-06-05T07:13:37;96528.09;;;21.05;46.99
21821;BME280;11073;48.586;12.066;2023-06-05T07:16:26;96527.69;;;21.12;46.76
21821;BME280;11073;48.586;12.066;2023-06-05T07:19:15;96524.03;;;21.16;46.84
21821;BME280;11073;48.586;12.066;2023-06-05T07:22:05;96530.34;;;21.17;46.39
21821;BME280;11073;48.586;12.066;2023-06-05T07:24:55;96520.97;;;21.18;46.70
21821;BME280;11073;48.586;12.066;2023-06-05T07:27:44;96526.03;;;21.30;46.92
21821;BME280;11073;48.586;12.066;2023-06-05T07:30:33;96523.38;;;21.38;46.73
21821;BME280;11073;48.586;12.066;2023-06-05T07:33:23;96518.47;;;21.49;46.42
21821;BME280;11073;48.586;12.066;2023-06-05T07:36:17;96522.75;;;21.41;46.70
21821;BME280;11073;48.586;12.066;2023-06-05T07:39:08;96531.31;;;21.40;46.84
21821;BME280;11073;48.586;12.066;2023-06-05T07:41:57;96518.88;;;21.42;46.42
21821;BME280;11073;48.586;12.066;2023-06-05T07:44:46;96522.66;;;21.60;46.45
21821;BME280;11073;48.586;12.066;2023-06-05T07:47:35;96525.81;;;21.67;46.68
21821;BME280;11073;48.586;12.066;2023-06-05T07:50:25;96529.16;;;21.51;46.31
21821;BME280;11073;48.586;12.066;2023-06-05T07:53:15;96522.56;;;21.52;46.65
21821;BME280;11073;48.586;12.066;2023-06-05T07:56:06;96520.72;;;21.61;46.41
21821;BME280;11073;48.586;12.066;2023-06-05T07:58:55;96519.88;;;21.74;46.44
21821;BME280;11073;48.586;12.066;2023-06-05T08:01:44;96518.44;;;21.77;46.75
21821;BME280;11073;48.586;12.066;2023-06-05T08:04:33;96515.06;;;21.80;46.52
21821;BME280;11073;48.586;12.066;2023-06-05T08:07:23;96514.03;;;21.89;46.67
21821;BME280;11073;48.586;12.066;2023-06-05T08:10:12;96513.00;;;21.85;46.38
21821;BME280;11073;48.586;12.066;2023-06-05T08:13:02;96522.50;;;21.93;46.13
21821;BME280;11073;48.586;12.066;2023-06-05T08:15:52;96521.16;;;22.04;46.40
21821;BME280;11073;48.586;12.066;2023-06-05T08:18:42;96512.25;;;22.21;46.42
21821;BME280;11073;48.586;12.066;2023-06-05T08:21:31;96514.78;;;22.31;46.20
21821;BME280;11073;48.586;12.066;2023-06-05T08:24:20;96520.75;;;22.47;45.77
21821;BME280;11073;48.586;12.066;2023-06-05T08:27:09;96504.56;;;22.54;45.78
21821;BME280;11073;48.586;12.066;2023-06-05T08:30:00;96527.13;;;22.78;45.37
21821;BME280;11073;48.586;12.066;2023-06-05T08:32:48;96517.66;;;22.93;45.46
21821;BME280;11073;48.586;12.066;2023-06-05T08:35:40;96511.69;;;23.00;44.88
21821;BME280;11073;48.586;12.066;2023-06-05T08:38:30;96512.94;;;23.25;44.77
21821;BME280;11073;48.586;12.066;2023-06-05T08:41:18;96524.69;;;23.39;44.48
21821;BME280;11073;48.586;12.066;2023-06-05T08:44:11;96514.69;;;23.52;44.01
21821;BME280;11073;48.586;12.066;2023-06-05T08:47:02;96509.25;;;23.69;43.99
21821;BME280;11073;48.586;12.066;2023-06-05T08:49:52;96510.09;;;23.87;43.87
21821;BME280;11073;48.586;12.066;2023-06-05T08:52:43;96511.72;;;23.97;43.19
21821;BME280;11073;48.586;12.066;2023-06-05T08:55:33;96505.22;;;23.84;43.16
21821;BME280;11073;48.586;12.066;2023-06-05T08:58:23;96502.81;;;23.91;42.87
21821;BME280;11073;48.586;12.066;2023-06-05T09:01:12;96518.25;;;24.01;43.03
21821;BME280;11073;48.586;12.066;2023-06-05T09:04:03;96509.81;;;24.14;42.94
21821;BME280;11073;48.586;12.066;2023-06-05T09:06:52;96505.44;;;24.31;42.74
21821;BME280;11073;48.586;12.066;2023-06-05T09:09:42;96478.94;;;24.38;42.46
21821;BME280;11073;48.586;12.066;2023-06-05T09:12:31;96496.31;;;24.73;42.17
21821;BME280;11073;48.586;12.066;2023-06-05T09:15:22;96504.91;;;24.89;42.08
21821;BME280;11073;48.586;12.066;2023-06-05T09:18:12;96501.47;;;25.01;41.60
21821;BME280;11073;48.586;12.066;2023-06-05T09:21:12;96508.25;;;25.29;41.45
21821;BME280;11073;48.586;12.066;2023-06-05T09:24:12;96502.22;;;25.27;41.17
21821;BME280;11073;48.586;12.066;2023-06-05T09:27:03;96503.44;;;25.09;41.11
21821;BME280;11073;48.586;12.066;2023-06-05T09:30:02;96499.09;;;25.38;41.02
21821;BME280;11073;48.586;12.066;2023-06-05T09:32:51;96495.81;;;25.44;40.90
21821;BME280;11073;48.586;12.066;2023-06-05T09:35:41;96495.88;;;25.65;40.48
21821;BME280;11073;48.586;12.066;2023-06-05T09:38:32;96497.44;;;26.04;40.21
21821;BME280;11073;48.586;12.066;2023-06-05T09:41:21;96498.63;;;26.24;40.01
21821;BME280;11073;48.586;12.066;2023-06-05T09:44:11;96502.41;;;26.61;39.75
21821;BME280;11073;48.586;12.066;2023-06-05T09:47:01;96490.50;;;26.61;39.00
21821;BME280;11073;48.586;12.066;2023-06-05T09:49:53;96497.63;;;26.83;38.80
21821;BME280;11073;48.586;12.066;2023-06-05T09:52:43;96495.28;;;27.06;38.45
21821;BME280;11073;48.586;12.066;2023-06-05T09:55:35;96490.19;;;27.08;37.38
21821;BME280;11073;48.586;12.066;2023-06-05T09:58:24;96487.47;;;27.32;37.44
21821;BME280;11073;48.586;12.066;2023-06-05T10:01:15;96492.16;;;27.89;37.27
21821;BME280;11073;48.586;12.066;2023-06-05T10:04:09;96487.69;;;28.25;36.49
21821;BME280;11073;48.586;12.066;2023-06-05T10:07:00;96488.00;;;28.48;35.96
21821;BME280;11073;48.586;12.066;2023-06-05T10:09:50;96481.97;;;28.74;35.68
21821;BME280;11073;48.586;12.066;2023-06-05T10:12:41;96492.88;;;29.07;35.67
21821;BME280;11073;48.586;12.066;2023-06-05T10:15:32;96479.38;;;29.25;35.43
21821;BME280;11073;48.586;12.066;2023-06-05T10:18:22;96482.59;;;28.95;34.91
21821;BME280;11073;48.586;12.066;2023-06-05T10:21:11;96487.81;;;28.69;35.08
21821;BME280;11073;48.586;12.066;2023-06-05T10:24:02;96481.06;;;28.70;34.78
21821;BME280;11073;48.586;12.066;2023-06-05T10:27:23;96486.91;;;28.80;34.95
21821;BME280;11073;48.586;12.066;2023-06-05T10:30:35;96483.44;;;28.83;35.06
21821;BME280;11073;48.586;12.066;2023-06-05T10:33:48;96480.19;;;29.25;34.91
21821;BME280;11073;48.586;12.066;2023-06-05T10:36:59;96474.53;;;29.22;35.18
21821;BME280;11073;48.586;12.066;2023-06-05T10:39:53;96475.63;;;28.89;34.42
21821;BME280;11073;48.586;12.066;2023-06-05T10:42:44;96444.56;;;28.59;34.82
21821;BME280;11073;48.586;12.066;2023-06-05T10:45:34;96476.41;;;29.18;34.96
21821;BME280;11073;48.586;12.066;2023-06-05T10:51:50;96466.81;;;29.78;34.27
21821;BME280;11073;48.586;12.066;2023-06-05T10:54:54;96464.78;;;30.10;33.93
21821;BME280;11073;48.586;12.066;2023-06-05T10:58:03;96464.50;;;30.15;33.61
21821;BME280;11073;48.586;12.066;2023-06-05T11:01:18;96464.19;;;29.38;32.75
21821;BME280;11073;48.586;12.066;2023-06-05T11:04:09;96474.16;;;29.07;33.49
21821;BME280;11073;48.586;12.066;2023-06-05T11:07:14;96465.81;;;29.07;33.97
21821;BME280;11073;48.586;12.066;2023-06-05T11:10:05;96464.63;;;29.40;34.07
21821;BME280;11073;48.586;12.066;2023-06-05T11:13:01;96463.66;;;29.17;34.37
21821;BME280;11073;48.586;12.066;2023-06-05T11:15:51;96467.22;;;29.01;34.55
21821;BME280;11073;48.586;12.066;2023-06-05T11:18:45;96471.69;;;28.90;34.34
21821;BME280;11073;48.586;12.066;2023-06-05T11:22:04;96465.88;;;29.11;34.60
21821;BME280;11073;48.586;12.066;2023-06-05T11:25:24;96467.16;;;29.77;34.03
21821;BME280;11073;48.586;12.066;2023-06-05T11:28:38;96470.34;;;29.59;34.18
21821;BME280;11073;48.586;12.066;2023-06-05T11:31:28;96462.69;;;29.72;33.91
21821;BME280;11073;48.586;12.066;2023-06-05T11:34:23;96457.97;;;29.76;33.84
21821;BME280;11073;48.586;12.066;2023-06-05T11:37:16;96455.31;;;29.48;33.49
21821;BME280;11073;48.586;12.066;2023-06-05T11:40:07;96458.63;;;29.38;34.17
21821;BME280;11073;48.586;12.066;2023-06-05T11:43:02;96461.13;;;29.75;33.99
21821;BME280;11073;48.586;12.066;2023-06-05T11:45:53;96464.63;;;29.87;33.50
21821;BME280;11073;48.586;12.066;2023-06-05T11:48:43;96459.34;;;30.17;33.34
21821;BME280;11073;48.586;12.066;2023-06-05T11:51:35;96459.06;;;29.87;33.41
21821;BME280;11073;48.586;12.066;2023-06-05T11:54:29;96464.03;;;29.78;33.49
21821;BME280;11073;48.586;12.066;2023-06-05T11:57:19;96459.53;;;29.42;33.63
21821;BME280;11073;48.586;12.066;2023-06-05T12:00:26;96453.31;;;29.01;34.27
21821;BME280;11073;48.586;12.066;2023-06-05T12:03:18;96463.03;;;29.07;34.10
21821;BME280;11073;48.586;12.066;2023-06-05T12:06:08;96466.44;;;29.32;34.51
21821;BME280;11073;48.586;12.066;2023-06-05T12:09:08;96466.31;;;29.57;34.20
21821;BME280;11073;48.586;12.066;2023-06-05T12:12:05;96464.31;;;29.57;33.89
21821;BME280;11073;48.586;12.066;2023-06-05T12:14:55;96460.97;;;29.67;33.79
21821;BME280;11073;48.586;12.066;2023-06-05T12:17:48;96463.94;;;29.75;33.56
21821;BME280;11073;48.586;12.066;2023-06-05T12:20:38;96457.47;;;29.71;33.91
21821;BME280;11073;48.586;12.066;2023-06-05T12:23:29;96439.84;;;29.51;34.04
21821;BME280;11073;48.586;12.066;2023-06-05T12:26:22;96460.53;;;29.50;33.59
21821;BME280;11073;48.586;12.066;2023-06-05T12:29:14;96443.69;;;29.30;33.63
21821;BME280;11073;48.586;12.066;2023-06-05T12:32:21;96455.13;;;29.41;33.60
21821;BME280;11073;48.586;12.066;2023-06-05T12:35:18;96455.22;;;29.60;33.78
21821;BME280;11073;48.586;12.066;2023-06-05T12:38:08;96424.53;;;29.45;33.91
21821;BME280;11073;48.586;12.066;2023-06-05T12:40:59;96443.25;;;29.28;33.76
21821;BME280;11073;48.586;12.066;2023-06-05T12:44:03;96434.28;;;29.51;33.79
21821;BME280;11073;48.586;12.066;2023-06-05T12:46:53;96443.13;;;29.88;33.73
21821;BME280;11073;48.586;12.066;2023-06-05T12:49:42;96422.91;;;30.10;33.04
21821;BME280;11073;48.586;12.066;2023-06-05T12:52:31;96441.22;;;30.46;32.95
21821;BME280;11073;48.586;12.066;2023-06-05T12:55:20;96432.69;;;30.20;32.83
21821;BME280;11073;48.586;12.066;2023-06-05T12:58:10;96433.38;;;30.13;32.67
21821;BME280;11073;48.586;12.066;2023-06-05T13:01:00;96429.84;;;30.16;32.54
21821;BME280;11073;48.586;12.066;2023-06-05T13:03:50;96442.34;;;30.23;32.51
21821;BME280;11073;48.586;12.066;2023-06-05T13:06:40;96434.63;;;30.00;32.64
21821;BME280;11073;48.586;12.066;2023-06-05T13:09:30;96425.09;;;29.34;33.06
21821;BME280;11073;48.586;12.066;2023-06-05T13:12:19;96430.75;;;29.06;33.76
21821;BME280;11073;48.586;12.066;2023-06-05T13:15:09;96434.25;;;29.03;34.17
21821;BME280;11073;48.586;12.066;2023-06-05T13:18:00;96415.47;;;29.00;33.88
21821;BME280;11073;48.586;12.066;2023-06-05T13:20:49;96422.28;;;29.03;34.21
21821;BME280;11073;48.586;12.066;2023-06-05T13:23:37;96426.06;;;28.95;34.25
21821;BME280;11073;48.586;12.066;2023-06-05T13:26:26;96433.97;;;29.08;33.95
21821;BME280;11073;48.586;12.066;2023-06-05T13:29:15;96442.97;;;29.18;34.28
21821;BME280;11073;48.586;12.066;2023-06-05T13:32:04;96444.94;;;29.33;34.02
21821;BME280;11073;48.586;12.066;2023-06-05T13:34:55;96425.06;;;29.19;34.05
21821;BME280;11073;48.586;12.066;2023-06-05T13:37:47;96441.34;;;29.32;34.32
21821;BME280;11073;48.586;12.066;2023-06-05T13:40:38;96433.53;;;29.38;34.39
21821;BME280;11073;48.586;12.066;2023-06-05T13:43:29;96426.97;;;29.15;34.36
21821;BME280;11073;48.586;12.066;2023-06-05T13:46:18;96428.25;;;28.89;34.89
21821;BME280;11073;48.586;12.066;2023-06-05T13:49:07;96432.94;;;28.85;35.05
21821;BME280;11073;48.586;12.066;2023-06-05T13:51:58;96429.41;;;28.72;35.10
21821;BME280;11073;48.586;12.066;2023-06-05T13:54:47;96439.31;;;28.85;35.52
21821;BME280;11073;48.586;12.066;2023-06-05T13:57:38;96430.63;;;28.59;35.02
21821;BME280;11073;48.586;12.066;2023-06-05T14:00:31;96422.63;;;28.57;35.58
21821;BME280;11073;48.586;12.066;2023-06-05T14:03:22;96429.97;;;28.78;35.34
21821;BME280;11073;48.586;12.066;2023-06-05T14:06:11;96419.72;;;28.82;35.64
21821;BME280;11073;48.586;12.066;2023-06-05T14:09:04;96418.25;;;29.00;34.93
21821;BME280;11073;48.586;12.066;2023-06-05T14:11:53;96418.66;;;28.87;35.26
21821;BME280;11073;48.586;12.066;2023-06-05T14:14:42;96419.59;;;29.06;35.48
21821;BME280;11073;48.586;12.066;2023-06-05T14:17:31;96419.97;;;29.21;35.02
21821;BME280;11073;48.586;12.066;2023-06-05T14:20:21;96427.06;;;29.50;34.74
21821;BME280;11073;48.586;12.066;2023-06-05T14:23:09;96417.97;;;29.69;34.50
21821;BME280;11073;48.586;12.066;2023-06-05T14:26:00;96417.94;;;29.84;34.57
21821;BME280;11073;48.586;12.066;2023-06-05T14:28:49;96422.50;;;29.92;33.95
21821;BME280;11073;48.586;12.066;2023-06-05T14:31:38;96420.22;;;30.14;33.43
21821;BME280;11073;48.586;12.066;2023-06-05T14:34:26;96420.41;;;30.63;33.45
21821;BME280;11073;48.586;12.066;2023-06-05T14:37:16;96423.06;;;30.95;32.83
21821;BME280;11073;48.586;12.066;2023-06-05T14:40:06;96419.78;;;30.31;32.43
21821;BME280;11073;48.586;12.066;2023-06-05T14:42:56;96403.47;;;29.47;32.96
21821;BME280;11073;48.586;12.066;2023-06-05T14:45:45;96406.63;;;29.61;33.90
21821;BME280;11073;48.586;12.066;2023-06-05T14:48:34;96397.94;;;29.63;33.37
21821;BME280;11073;48.586;12.066;2023-06-05T14:51:23;96406.41;;;29.51;33.42
21821;BME280;11073;48.586;12.066;2023-06-05T14:54:12;96414.41;;;29.87;33.60
21821;BME280;11073;48.586;12.066;2023-06-05T14:57:03;96423.38;;;30.32;33.59
21821;BME280;11073;48.586;12.066;2023-06-05T14:59:54;96421.34;;;30.67;32.51